Time;durP1;ratioP1;P1;durP2;ratioP2;P2;SDS_P1;SDS_P2;PMS_P1;PMS_P2;Temp;Humidity;BMP_temperature;BMP_pressure;BME280_temperature;BME280_humidity;BME280_pressure;Samples;Min_cycle;Max_cycle;Signal;HPM_P1;HPM_P2
2022/11/10 00:00:07;;;;;;;3.17;2.20;;;11.20;99.90;;;;;;939768;150;27328;-80
2022/11/10 00:02:33;;;;;;;2.50;1.97;;;11.20;99.90;;;;;;940535;150;27347;-79
2022/11/10 00:04:59;;;;;;;2.27;2.07;;;11.10;99.90;;;;;;939945;152;27448;-81
2022/11/10 00:07:26;;;;;;;2.13;1.80;;;11.10;99.90;;;;;;940651;150;27392;-81
2022/11/10 00:09:52;;;;;;;5.30;2.53;;;11.00;99.90;;;;;;940537;150;27368;-81
2022/11/10 00:12:19;;;;;;;3.83;2.23;;;11.00;99.90;;;;;;939989;150;27296;-81
2022/11/10 00:17:30;;;;;;;2.30;2.10;;;10.90;99.90;;;;;;940872;152;27371;-81
2022/11/10 00:19:57;;;;;;;4.63;2.30;;;10.90;99.90;;;;;;940111;152;27495;-81
2022/11/10 00:22:23;;;;;;;4.30;2.00;;;10.80;99.90;;;;;;940450;150;27342;-81
2022/11/10 00:24:50;;;;;;;6.10;2.67;;;10.80;99.90;;;;;;940756;151;27343;-80
2022/11/10 00:27:16;;;;;;;5.23;2.10;;;10.70;99.90;;;;;;940635;150;27301;-81
2022/11/10 00:29:43;;;;;;;2.50;2.20;;;10.70;99.90;;;;;;941010;152;27482;-80
2022/11/10 00:32:10;;;;;;;4.00;2.30;;;10.70;99.90;;;;;;940736;150;27368;-81
2022/11/10 00:34:36;;;;;;;2.70;2.30;;;10.60;99.90;;;;;;940099;150;27325;-80
2022/11/10 00:37:03;;;;;;;4.83;1.93;;;10.60;99.90;;;;;;939821;150;27430;-80
2022/11/10 00:39:29;;;;;;;5.23;2.20;;;10.60;99.90;;;;;;940042;152;27444;-80
2022/11/10 00:41:56;;;;;;;4.40;2.13;;;10.50;99.90;;;;;;940393;151;28100;-81
2022/11/10 00:44:23;;;;;;;2.53;2.10;;;10.50;99.90;;;;;;939857;151;27445;-81
2022/11/10 00:46:49;;;;;;;5.40;1.80;;;10.50;99.90;;;;;;940354;150;27441;-80
2022/11/10 00:49:16;;;;;;;2.93;2.20;;;10.40;99.90;;;;;;939221;152;27346;-81
2022/11/10 00:51:42;;;;;;;4.50;2.13;;;10.40;99.90;;;;;;940624;152;27305;-80
2022/11/10 00:54:09;;;;;;;3.63;2.70;;;10.30;99.90;;;;;;940653;151;27428;-80
2022/11/10 00:56:36;;;;;;;4.63;2.53;;;10.30;99.90;;;;;;940719;149;27448;-81
2022/11/10 00:59:02;;;;;;;4.10;2.23;;;10.30;99.90;;;;;;940516;149;27253;-81
2022/11/10 01:01:29;;;;;;;4.47;2.20;;;10.30;99.90;;;;;;940207;152;27354;-81
2022/11/10 01:03:55;;;;;;;4.60;2.10;;;10.30;99.90;;;;;;940891;151;27313;-81
2022/11/10 01:06:22;;;;;;;3.20;2.20;;;10.30;99.90;;;;;;940085;151;27273;-80
2022/11/10 01:08:48;;;;;;;2.83;1.90;;;10.30;99.90;;;;;;941210;149;27382;-81
2022/11/10 01:11:18;;;;;;;4.50;1.80;;;10.30;99.90;;;;;;939664;152;27346;-81
2022/11/10 01:13:44;;;;;;;3.73;1.97;;;10.30;99.90;;;;;;940543;151;27408;-81
2022/11/10 01:16:13;;;;;;;10.90;2.87;;;10.30;99.90;;;;;;939822;152;27262;-81
2022/11/10 01:18:40;;;;;;;2.83;2.20;;;10.40;99.90;;;;;;940339;151;27388;-81
2022/11/10 01:21:06;;;;;;;2.23;2.03;;;10.40;99.90;;;;;;940855;150;27329;-80
2022/11/10 01:23:33;;;;;;;6.03;1.93;;;10.40;99.90;;;;;;940171;151;27361;-81
2022/11/10 01:26:00;;;;;;;5.57;2.13;;;10.40;99.90;;;;;;940225;151;27305;-80
2022/11/10 01:28:26;;;;;;;4.13;2.10;;;10.30;99.90;;;;;;939887;151;27300;-80
2022/11/10 01:30:56;;;;;;;3.30;2.00;;;10.30;99.90;;;;;;940092;151;27328;-81
2022/11/10 01:33:22;;;;;;;8.87;2.30;;;10.30;99.90;;;;;;939553;149;28393;-81
2022/11/10 01:35:49;;;;;;;4.50;2.20;;;10.40;99.90;;;;;;939556;150;27328;-80
2022/11/10 01:38:15;;;;;;;4.83;2.00;;;10.40;99.90;;;;;;940253;151;27336;-81
2022/11/10 01:40:42;;;;;;;2.80;1.90;;;10.40;99.90;;;;;;940429;152;27276;-80
2022/11/10 01:43:09;;;;;;;3.13;1.90;;;10.40;99.90;;;;;;940713;149;27344;-79
2022/11/10 01:45:53;;;;;;;2.10;1.90;;;10.30;99.90;;;;;;939801;152;27347;-80
2022/11/10 01:48:26;;;;;;;4.47;2.47;;;10.30;99.90;;;;;;940766;152;27356;-81
2022/11/10 01:50:53;;;;;;;3.90;1.90;;;10.30;99.90;;;;;;940158;152;27397;-81
2022/11/10 01:53:19;;;;;;;3.50;2.00;;;10.30;99.90;;;;;;940752;151;27312;-81
2022/11/10 01:55:46;;;;;;;3.73;2.03;;;10.20;99.90;;;;;;939446;150;27296;-80
2022/11/10 01:58:13;;;;;;;5.20;2.20;;;10.20;99.90;;;;;;940496;149;27344;-79
2022/11/10 02:00:39;;;;;;;3.23;2.37;;;10.20;99.90;;;;;;940662;151;27449;-80
2022/11/10 02:03:14;;;;;;;3.60;2.10;;;10.20;99.90;;;;;;939761;150;28932;-80
2022/11/10 02:05:41;;;;;;;4.33;2.03;;;10.10;99.90;;;;;;940080;150;27281;-79
2022/11/10 02:08:08;;;;;;;4.87;2.13;;;10.10;99.90;;;;;;939947;150;27437;-79
2022/11/10 02:10:36;;;;;;;2.67;2.10;;;10.00;99.90;;;;;;940660;151;27424;-80
2022/11/10 02:13:01;;;;;;;6.00;2.30;;;10.00;99.90;;;;;;940340;151;27352;-80
2022/11/10 02:15:27;;;;;;;3.70;2.30;;;9.90;99.90;;;;;;939498;150;28062;-79
2022/11/10 02:17:54;;;;;;;5.00;2.20;;;9.90;99.90;;;;;;940614;150;27826;-79
2022/11/10 02:20:20;;;;;;;2.90;2.33;;;9.80;99.90;;;;;;940560;150;27320;-79
2022/11/10 02:22:47;;;;;;;3.10;2.10;;;9.80;99.90;;;;;;939522;152;27339;-79
2022/11/10 02:25:14;;;;;;;3.40;2.07;;;9.80;99.90;;;;;;940017;149;27344;-80
2022/11/10 02:27:40;;;;;;;6.03;2.30;;;9.70;99.90;;;;;;940869;149;27277;-79
2022/11/10 02:30:07;;;;;;;3.27;2.90;;;9.70;99.90;;;;;;940345;151;27336;-81
2022/11/10 02:32:34;;;;;;;5.63;2.43;;;9.60;99.90;;;;;;940229;151;27357;-80
2022/11/10 02:35:00;;;;;;;2.43;1.97;;;9.60;99.90;;;;;;940560;149;27292;-79
2022/11/10 02:37:27;;;;;;;3.30;2.20;;;9.60;99.90;;;;;;948467;150;27366;-80
2022/11/10 02:39:53;;;;;;;3.20;2.40;;;9.50;99.90;;;;;;953260;150;27443;-80
2022/11/10 02:42:20;;;;;;;2.53;1.93;;;9.50;99.90;;;;;;953390;150;27310;-80
2022/11/10 02:44:46;;;;;;;4.23;2.50;;;9.50;99.90;;;;;;952832;148;27401;-79
2022/11/10 02:47:13;;;;;;;5.63;2.33;;;9.50;99.90;;;;;;953205;147;27368;-79
2022/11/10 02:49:40;;;;;;;3.53;1.90;;;9.50;99.90;;;;;;953631;147;27435;-80
2022/11/10 02:52:06;;;;;;;3.20;2.33;;;9.50;99.90;;;;;;953928;147;27737;-79
2022/11/10 02:54:33;;;;;;;3.43;2.00;;;9.50;99.90;;;;;;952914;147;27329;-79
2022/11/10 02:57:01;;;;;;;2.10;1.90;;;9.40;99.90;;;;;;953555;148;27451;-80
2022/11/10 02:59:26;;;;;;;5.70;2.13;;;9.40;99.90;;;;;;953071;149;27360;-79
2022/11/10 03:01:53;;;;;;;5.33;2.30;;;9.40;99.90;;;;;;953194;148;27313;-79
2022/11/10 03:04:19;;;;;;;3.33;2.30;;;9.30;99.90;;;;;;951643;150;27326;-79
2022/11/10 03:06:46;;;;;;;6.13;2.30;;;9.30;99.90;;;;;;953058;149;27319;-79
2022/11/10 03:09:12;;;;;;;3.07;2.30;;;9.30;99.90;;;;;;951422;147;27411;-79
2022/11/10 03:11:39;;;;;;;4.53;2.40;;;9.30;99.90;;;;;;952722;150;27306;-79
2022/11/10 03:14:05;;;;;;;3.83;2.60;;;9.30;99.90;;;;;;952971;150;27655;-78
2022/11/10 03:16:32;;;;;;;4.53;2.17;;;9.20;99.90;;;;;;952016;147;27430;-80
2022/11/10 03:18:59;;;;;;;3.03;2.20;;;9.20;99.90;;;;;;953127;150;27355;-80
2022/11/10 03:21:25;;;;;;;2.47;2.13;;;9.20;99.90;;;;;;952656;150;27410;-80
2022/11/10 03:23:52;;;;;;;6.00;2.50;;;9.20;99.90;;;;;;952922;148;27320;-79
2022/11/10 03:26:18;;;;;;;4.83;2.30;;;9.20;99.90;;;;;;952068;147;27376;-79
2022/11/10 03:28:45;;;;;;;2.73;2.53;;;9.20;99.90;;;;;;953113;148;27334;-79
2022/11/10 03:31:12;;;;;;;3.13;2.40;;;9.10;99.90;;;;;;952295;150;27335;-79
2022/11/10 03:33:38;;;;;;;4.53;2.60;;;9.10;99.90;;;;;;953513;148;27239;-79
2022/11/10 03:36:05;;;;;;;5.57;2.70;;;9.10;99.90;;;;;;952037;147;27402;-80
2022/11/10 03:38:31;;;;;;;5.03;2.87;;;9.10;99.90;;;;;;953431;148;27403;-79
2022/11/10 03:40:58;;;;;;;4.17;2.40;;;9.10;99.90;;;;;;953492;148;27333;-78
2022/11/10 03:43:24;;;;;;;2.73;2.40;;;9.10;99.90;;;;;;953125;148;27334;-80
2022/11/10 03:45:51;;;;;;;3.93;2.07;;;9.00;99.90;;;;;;952609;147;27318;-79
2022/11/10 03:48:18;;;;;;;3.70;2.50;;;9.00;99.90;;;;;;952959;150;27345;-80
2022/11/10 03:50:44;;;;;;;4.80;2.63;;;9.00;99.90;;;;;;953523;147;27267;-80
2022/11/10 03:53:11;;;;;;;3.83;2.77;;;9.00;99.90;;;;;;952434;148;27370;-79
2022/11/10 03:55:37;;;;;;;2.70;2.50;;;9.00;99.90;;;;;;952451;147;27459;-79
2022/11/10 03:58:04;;;;;;;4.17;3.23;;;9.00;99.90;;;;;;951758;150;27459;-80
2022/11/10 04:00:31;;;;;;;6.70;3.30;;;9.00;99.90;;;;;;953303;148;27275;-80
2022/11/10 04:02:57;;;;;;;3.70;2.60;;;9.00;99.90;;;;;;952456;148;27352;-80
2022/11/10 04:10:56;;;;;;;3.17;2.33;;;8.90;99.90;;;;;;952855;150;27439;-80
2022/11/10 04:16:08;;;;;;;4.43;2.47;;;8.90;99.90;;;;;;953490;148;27402;-80
2022/11/10 04:18:34;;;;;;;3.17;2.50;;;8.90;99.90;;;;;;952309;150;27351;-79
2022/11/10 04:21:01;;;;;;;5.73;2.33;;;8.90;99.90;;;;;;953093;150;27406;-80
2022/11/10 04:23:29;;;;;;;2.57;2.30;;;8.80;99.90;;;;;;952938;149;27341;-79
2022/11/10 04:28:39;;;;;;;6.37;2.90;;;8.80;99.90;;;;;;953272;150;27279;-81
2022/11/10 04:31:05;;;;;;;5.30;2.80;;;8.80;99.90;;;;;;952964;150;27247;-80
2022/11/10 04:33:32;;;;;;;5.13;2.70;;;8.80;99.90;;;;;;953553;149;27363;-80
2022/11/10 04:35:58;;;;;;;4.30;2.50;;;8.70;99.90;;;;;;952601;148;27402;-79
2022/11/10 04:38:25;;;;;;;3.63;2.20;;;8.70;99.90;;;;;;947321;150;27454;-80
2022/11/10 04:40:52;;;;;;;3.60;2.37;;;8.70;99.90;;;;;;940729;152;27448;-79
2022/11/10 04:43:18;;;;;;;2.40;2.00;;;8.70;99.90;;;;;;940376;149;27280;-80
2022/11/10 04:45:45;;;;;;;2.77;2.50;;;8.60;99.90;;;;;;940397;150;27382;-79
2022/11/10 04:48:11;;;;;;;3.40;2.57;;;8.60;99.90;;;;;;940310;151;27316;-80
2022/11/10 04:50:38;;;;;;;3.83;2.33;;;8.60;99.90;;;;;;940078;149;27339;-80
2022/11/10 04:53:05;;;;;;;3.73;2.33;;;8.60;99.90;;;;;;939951;152;27971;-80
2022/11/10 04:55:31;;;;;;;3.37;2.63;;;8.60;99.90;;;;;;940483;150;27361;-80
2022/11/10 04:57:58;;;;;;;3.07;2.60;;;8.60;99.90;;;;;;940565;150;27362;-79
2022/11/10 05:00:24;;;;;;;3.50;2.60;;;8.50;99.90;;;;;;940794;151;27393;-80
2022/11/10 05:02:51;;;;;;;5.17;2.80;;;8.50;99.90;;;;;;940587;151;27412;-79
2022/11/10 05:05:17;;;;;;;5.77;3.17;;;8.50;99.90;;;;;;939991;152;27404;-80
2022/11/10 05:07:44;;;;;;;4.43;3.37;;;8.50;99.90;;;;;;940186;150;27421;-80
2022/11/10 05:10:11;;;;;;;3.83;2.77;;;8.50;99.90;;;;;;939822;150;27284;-80
2022/11/10 05:12:37;;;;;;;4.10;2.80;;;8.50;99.90;;;;;;940707;150;27293;-80
2022/11/10 05:15:04;;;;;;;5.27;2.73;;;8.50;99.90;;;;;;939474;151;27328;-80
2022/11/10 05:17:30;;;;;;;6.10;3.00;;;8.50;99.90;;;;;;940569;151;27426;-81
2022/11/10 05:19:57;;;;;;;4.37;2.70;;;8.50;99.90;;;;;;940256;151;27329;-81
2022/11/10 05:22:24;;;;;;;3.40;2.40;;;8.50;99.90;;;;;;940405;149;27328;-81
2022/11/10 05:24:50;;;;;;;4.87;2.60;;;8.50;99.90;;;;;;939251;149;27334;-80
2022/11/10 05:27:17;;;;;;;5.30;2.80;;;8.50;99.90;;;;;;940391;149;27359;-80
2022/11/10 05:29:43;;;;;;;4.63;2.60;;;8.50;99.90;;;;;;939830;150;27321;-81
2022/11/10 05:32:10;;;;;;;3.73;2.87;;;8.50;99.90;;;;;;939960;150;27432;-81
2022/11/10 05:34:37;;;;;;;5.50;2.77;;;8.50;99.90;;;;;;940572;149;27435;-81
2022/11/10 05:37:03;;;;;;;8.43;2.80;;;8.50;99.90;;;;;;941047;150;27288;-81
2022/11/10 05:39:30;;;;;;;7.37;2.83;;;8.50;99.90;;;;;;945491;149;27487;-80
2022/11/10 05:41:56;;;;;;;5.93;2.70;;;8.50;99.90;;;;;;948482;148;27318;-80
2022/11/10 05:44:23;;;;;;;4.30;3.30;;;8.50;99.90;;;;;;947997;148;27351;-80
2022/11/10 05:46:49;;;;;;;5.37;2.90;;;8.60;99.90;;;;;;950259;143;27295;-79
2022/11/10 05:49:16;;;;;;;4.43;2.90;;;8.60;99.90;;;;;;949891;148;28056;-80
2022/11/10 05:51:43;;;;;;;7.37;3.20;;;8.60;99.90;;;;;;950278;143;27278;-80
2022/11/10 05:54:09;;;;;;;3.97;3.30;;;8.60;99.90;;;;;;947955;150;27836;-80
2022/11/10 05:56:36;;;;;;;6.50;4.30;;;8.60;99.90;;;;;;946599;151;27382;-80
2022/11/10 05:59:02;;;;;;;4.63;3.40;;;8.60;99.90;;;;;;947116;151;28290;-81
2022/11/10 06:01:29;;;;;;;7.17;3.40;;;8.60;99.90;;;;;;947382;151;27346;-80
2022/11/10 06:03:56;;;;;;;5.87;3.00;;;8.60;99.90;;;;;;947139;150;27296;-80
2022/11/10 06:06:22;;;;;;;5.30;3.27;;;8.60;99.90;;;;;;948192;151;27384;-81
2022/11/10 06:08:49;;;;;;;6.77;3.50;;;8.70;99.90;;;;;;947693;148;27456;-80
2022/11/10 06:11:15;;;;;;;5.47;2.97;;;8.70;99.90;;;;;;948044;151;27432;-81
2022/11/10 06:13:42;;;;;;;5.73;4.00;;;8.70;99.90;;;;;;948075;151;28031;-80
2022/11/10 06:16:09;;;;;;;10.07;5.07;;;8.70;99.90;;;;;;948562;148;27314;-80
2022/11/10 06:18:35;;;;;;;4.30;3.43;;;8.70;99.90;;;;;;947869;151;27411;-80
2022/11/10 06:21:02;;;;;;;5.00;3.03;;;8.70;99.90;;;;;;948242;148;27346;-81
2022/11/10 06:23:29;;;;;;;4.87;2.63;;;8.70;99.90;;;;;;947112;148;27368;-81
2022/11/10 06:25:55;;;;;;;3.57;3.00;;;8.70;99.90;;;;;;948017;148;27291;-80
2022/11/10 06:28:21;;;;;;;3.83;2.83;;;8.60;99.90;;;;;;947888;150;27275;-81
2022/11/10 06:30:48;;;;;;;4.73;3.60;;;8.60;99.90;;;;;;947774;150;27418;-79
2022/11/10 06:33:15;;;;;;;3.97;2.80;;;8.60;99.90;;;;;;948416;148;27343;-80
2022/11/10 06:35:41;;;;;;;6.40;3.17;;;8.60;99.90;;;;;;947619;150;27321;-81
2022/11/10 06:38:11;;;;;;;3.53;3.23;;;8.50;99.90;;;;;;947467;151;27307;-81
2022/11/10 06:40:37;;;;;;;9.60;3.90;;;8.50;99.90;;;;;;948489;148;27358;-81
2022/11/10 06:43:04;;;;;;;6.30;3.37;;;8.50;99.90;;;;;;948369;148;27384;-80
2022/11/10 06:45:30;;;;;;;5.10;3.30;;;8.50;99.90;;;;;;947937;148;27334;-81
2022/11/10 06:48:09;;;;;;;5.17;3.03;;;8.50;99.90;;;;;;947729;150;27834;-81
2022/11/10 06:50:36;;;;;;;7.57;3.50;;;8.60;99.90;;;;;;946697;151;27309;-81
2022/11/10 06:53:02;;;;;;;8.37;3.67;;;8.70;99.90;;;;;;948654;150;27322;-80
2022/11/10 06:55:29;;;;;;;4.03;3.63;;;8.80;99.90;;;;;;948174;150;27339;-80
2022/11/10 06:57:55;;;;;;;6.30;3.57;;;8.90;99.90;;;;;;947994;151;28121;-80
2022/11/10 07:00:22;;;;;;;4.10;3.60;;;9.10;99.90;;;;;;946508;151;27426;-80
2022/11/10 07:02:48;;;;;;;4.87;3.33;;;9.20;99.90;;;;;;948084;150;27279;-81
2022/11/10 07:05:15;;;;;;;4.13;3.60;;;9.30;99.90;;;;;;945228;150;27771;-81
2022/11/10 07:07:42;;;;;;;5.80;3.43;;;9.50;99.90;;;;;;946464;148;27292;-81
2022/11/10 07:10:08;;;;;;;4.83;3.27;;;9.60;99.90;;;;;;948680;148;27764;-80
2022/11/10 07:12:35;;;;;;;10.20;3.97;;;9.60;99.90;;;;;;946835;151;27395;-81
2022/11/10 07:15:01;;;;;;;3.73;3.43;;;9.60;99.90;;;;;;946825;151;27357;-80
2022/11/10 07:17:28;;;;;;;4.30;3.07;;;9.60;99.90;;;;;;948157;148;27286;-81
2022/11/10 07:19:54;;;;;;;4.07;3.30;;;9.60;99.90;;;;;;948269;148;27708;-81
2022/11/10 07:22:22;;;;;;;9.10;3.97;;;9.60;99.90;;;;;;948361;148;27443;-80
2022/11/10 07:24:48;;;;;;;5.20;3.90;;;9.70;99.90;;;;;;947698;148;27422;-81
2022/11/10 07:27:14;;;;;;;7.30;4.17;;;10.00;99.90;;;;;;948025;151;27368;-81
2022/11/10 07:29:41;;;;;;;5.80;3.70;;;10.20;99.90;;;;;;947701;150;27283;-81
2022/11/10 07:32:07;;;;;;;6.83;3.50;;;10.60;99.90;;;;;;948124;150;27315;-81
2022/11/10 07:34:34;;;;;;;4.43;3.70;;;11.00;99.90;;;;;;947738;151;28110;-81
2022/11/10 07:37:01;;;;;;;6.83;3.70;;;11.50;99.90;;;;;;949313;148;27335;-81
2022/11/10 07:39:27;;;;;;;8.87;4.50;;;12.00;99.90;;;;;;946950;151;27427;-81
2022/11/10 07:41:54;;;;;;;5.93;3.90;;;12.50;99.90;;;;;;945277;149;27316;-82
2022/11/10 07:44:20;;;;;;;7.60;4.03;;;13.00;99.90;;;;;;944845;148;27420;-82
2022/11/10 07:46:47;;;;;;;8.47;3.53;;;13.50;99.90;;;;;;945123;149;27400;-81
2022/11/10 07:49:13;;;;;;;4.67;3.30;;;13.90;99.90;;;;;;944660;148;27442;-80
2022/11/10 07:51:40;;;;;;;5.63;3.30;;;14.40;99.90;;;;;;944553;151;27425;-81
2022/11/10 07:54:07;;;;;;;3.87;3.20;;;14.80;99.90;;;;;;945393;148;27333;-82
2022/11/10 07:56:33;;;;;;;4.10;3.08;;;15.30;99.90;;;;;;945022;151;27340;-82
2022/11/10 07:59:00;;;;;;;2.85;2.55;;;15.70;99.90;;;;;;944704;149;27307;-81
2022/11/10 08:01:26;;;;;;;4.92;2.58;;;16.10;99.90;;;;;;945055;149;27352;-81
2022/11/10 08:03:53;;;;;;;3.60;2.75;;;16.40;99.90;;;;;;944750;150;27695;-82
2022/11/10 08:06:20;;;;;;;5.70;2.52;;;16.80;99.90;;;;;;944526;149;27374;-82
2022/11/10 08:08:46;;;;;;;4.17;2.90;;;17.10;99.90;;;;;;944991;149;27421;-82
2022/11/10 08:11:13;;;;;;;5.15;2.83;;;17.40;99.90;;;;;;944934;149;27946;-81
2022/11/10 08:13:39;;;;;;;2.90;2.70;;;17.70;99.90;;;;;;945442;149;27293;-81
2022/11/10 08:16:06;;;;;;;5.28;3.17;;;18.00;99.90;;;;;;944419;150;27427;-82
2022/11/10 08:18:33;;;;;;;3.10;2.52;;;18.20;99.90;;;;;;945186;148;27331;-82
2022/11/10 08:21:02;;;;;;;4.20;2.90;;;18.50;99.90;;;;;;943606;149;27280;-82
2022/11/10 08:23:28;;;;;;;5.12;2.80;;;18.60;99.90;;;;;;944877;149;27487;-81
2022/11/10 08:25:58;;;;;;;3.22;2.58;;;18.70;99.90;;;;;;944501;148;27814;-81
2022/11/10 08:28:25;;;;;;;3.65;2.90;;;18.80;99.70;;;;;;943843;151;27340;-81
2022/11/10 08:30:51;;;;;;;5.00;2.67;;;18.90;99.50;;;;;;944350;149;27296;-82
2022/11/10 08:33:17;;;;;;;4.45;2.58;;;19.00;99.70;;;;;;943594;149;27256;-82
2022/11/10 08:35:44;;;;;;;3.08;2.30;;;19.00;99.80;;;;;;944650;149;27397;-81
2022/11/10 08:38:11;;;;;;;3.02;2.52;;;19.00;98.80;;;;;;944686;149;27354;-81
2022/11/10 08:40:37;;;;;;;5.12;2.52;;;19.00;97.10;;;;;;945739;148;27375;-82
2022/11/10 08:43:06;;;;;;;4.62;2.50;;;18.80;95.80;;;;;;948128;148;27426;-82
2022/11/10 08:45:30;;;;;;;3.55;2.60;;;18.60;94.90;;;;;;947802;148;27295;-83
2022/11/10 08:48:04;;;;;;;4.08;2.98;;;18.40;94.40;;;;;;947325;151;27316;-81
2022/11/10 08:50:29;;;;;;;4.65;3.00;;;18.10;94.20;;;;;;946804;151;27442;-81
2022/11/10 08:52:56;;;;;;;5.03;2.72;;;17.80;94.60;;;;;;948100;151;27429;-82
2022/11/10 08:55:23;;;;;;;4.72;2.65;;;17.60;94.90;;;;;;947537;148;27292;-82
2022/11/10 08:57:49;;;;;;;4.80;2.70;;;17.30;95.20;;;;;;948407;148;27935;-82
2022/11/10 09:00:16;;;;;;;8.13;3.85;;;17.10;95.70;;;;;;947815;148;27287;-81
2022/11/10 09:02:42;;;;;;;7.60;3.65;;;16.90;96.20;;;;;;947285;148;27268;-80
2022/11/10 09:05:09;;;;;;;6.00;3.42;;;16.70;96.60;;;;;;948399;148;27427;-81
2022/11/10 09:07:41;;;;;;;5.15;2.80;;;16.50;97.10;;;;;;948052;148;27328;-82
2022/11/10 09:10:08;;;;;;;4.50;2.75;;;16.30;97.70;;;;;;947788;150;27288;-81
2022/11/10 09:12:34;;;;;;;5.03;2.87;;;16.20;97.90;;;;;;947906;151;27304;-82
2022/11/10 09:15:01;;;;;;;3.72;2.80;;;16.00;98.30;;;;;;947466;150;27385;-81
2022/11/10 09:17:28;;;;;;;5.17;2.90;;;15.80;98.80;;;;;;946997;148;27374;-82
2022/11/10 09:19:54;;;;;;;2.98;2.40;;;15.70;98.90;;;;;;948612;150;27343;-82
2022/11/10 09:22:21;;;;;;;5.22;2.83;;;15.60;99.40;;;;;;947885;151;27327;-82
2022/11/10 09:24:47;;;;;;;6.60;2.85;;;15.50;99.90;;;;;;947232;148;27248;-82
2022/11/10 09:27:14;;;;;;;3.65;2.58;;;15.40;99.90;;;;;;947935;150;27315;-80
2022/11/10 09:29:41;;;;;;;3.40;2.42;;;15.40;99.90;;;;;;947579;148;27424;-81
2022/11/10 09:32:07;;;;;;;6.75;2.60;;;15.40;99.90;;;;;;948582;148;27318;-82
2022/11/10 09:34:34;;;;;;;7.30;3.67;;;15.40;99.90;;;;;;947744;151;27331;-82
2022/11/10 09:37:00;;;;;;;4.05;2.55;;;15.40;99.90;;;;;;948576;150;27287;-81
2022/11/10 09:39:27;;;;;;;2.92;2.55;;;15.50;99.90;;;;;;948371;148;27307;-82
2022/11/10 09:41:53;;;;;;;4.08;2.47;;;15.50;99.90;;;;;;950649;147;27362;-80
2022/11/10 09:44:26;;;;;;;5.12;2.20;;;15.50;99.90;;;;;;952208;150;27346;-82
2022/11/10 09:47:10;;;;;;;3.58;2.12;;;15.40;99.90;;;;;;953282;148;27330;-82
2022/11/10 09:49:46;;;;;;;5.60;2.90;;;15.50;99.90;;;;;;953416;150;27386;-83
2022/11/10 09:52:12;;;;;;;5.45;2.67;;;15.50;99.90;;;;;;952749;149;27404;-81
2022/11/10 09:54:39;;;;;;;3.02;2.35;;;15.50;99.90;;;;;;953434;150;27423;-83
2022/11/10 09:57:06;;;;;;;5.62;2.72;;;15.60;99.90;;;;;;952675;150;27407;-82
2022/11/10 09:59:32;;;;;;;5.35;2.40;;;15.60;99.90;;;;;;953469;148;27314;-81
2022/11/10 10:02:01;;;;;;;4.47;2.52;;;15.70;99.90;;;;;;952792;148;27318;-81
2022/11/10 10:04:52;;;;;;;4.35;2.30;;;15.80;99.90;;;;;;951684;148;27287;-83
2022/11/10 10:07:22;;;;;;;7.65;2.45;;;15.80;99.90;;;;;;953042;149;27419;-81
2022/11/10 10:09:51;;;;;;;5.67;2.50;;;15.90;99.90;;;;;;952845;149;27375;-83
2022/11/10 10:12:36;;;;;;;3.70;2.12;;;15.90;99.90;;;;;;951613;149;27741;-82
2022/11/10 10:15:09;;;;;;;7.25;2.90;;;15.90;99.90;;;;;;952707;150;27307;-81
2022/11/10 10:17:53;;;;;;;3.98;2.22;;;15.80;99.90;;;;;;951758;148;27314;-81
2022/11/10 10:20:29;;;;;;;4.42;2.20;;;15.80;99.90;;;;;;952270;149;27426;-83
2022/11/10 10:22:58;;;;;;;7.33;2.42;;;15.80;99.90;;;;;;952763;150;27780;-82
2022/11/10 10:25:25;;;;;;;4.72;2.30;;;15.80;99.90;;;;;;951220;149;27236;-82
2022/11/10 10:27:54;;;;;;;3.65;1.82;;;15.80;99.90;;;;;;953918;148;27275;-82
2022/11/10 10:30:20;;;;;;;3.37;2.50;;;15.80;99.90;;;;;;952293;149;27342;-82
2022/11/10 10:32:47;;;;;;;6.42;2.60;;;15.90;99.90;;;;;;953185;148;27389;-82
2022/11/10 10:35:16;;;;;;;4.67;2.75;;;15.90;99.90;;;;;;952870;150;27286;-82
2022/11/10 10:37:45;;;;;;;5.78;2.15;;;15.90;99.90;;;;;;952204;150;27380;-81
2022/11/10 10:40:15;;;;;;;5.42;2.10;;;16.00;99.80;;;;;;952667;149;27337;-80
2022/11/10 10:42:41;;;;;;;3.27;2.25;;;16.00;99.90;;;;;;945239;147;27482;-83
2022/11/10 10:45:17;;;;;;;7.62;2.15;;;16.10;99.90;;;;;;940261;152;27451;-83
2022/11/10 10:47:43;;;;;;;3.58;2.00;;;16.10;99.90;;;;;;941056;151;27290;-83
2022/11/10 10:50:22;;;;;;;4.17;2.17;;;16.10;99.90;;;;;;940020;150;27300;-82
2022/11/10 10:53:19;;;;;;;2.83;1.67;;;16.20;99.90;;;;;;940049;152;27479;-82
2022/11/10 10:56:01;;;;;;;6.87;2.40;;;16.30;99.90;;;;;;940642;150;27349;-82
2022/11/10 10:58:30;;;;;;;2.75;1.80;;;16.40;99.90;;;;;;939407;152;27349;-83
2022/11/10 11:01:14;;;;;;;6.15;2.50;;;16.50;99.90;;;;;;939671;150;27366;-82
2022/11/10 11:03:50;;;;;;;5.10;2.47;;;16.70;99.90;;;;;;940105;151;27416;-82
2022/11/10 11:06:16;;;;;;;6.85;2.35;;;16.80;99.90;;;;;;939546;150;27871;-82
2022/11/10 11:09:14;;;;;;;3.15;1.98;;;17.00;99.90;;;;;;940386;150;27632;-82
2022/11/10 11:11:40;;;;;;;5.45;2.40;;;17.10;99.50;;;;;;940532;151;27345;-82
2022/11/10 11:14:19;;;;;;;5.28;2.45;;;17.20;98.40;;;;;;939960;152;27397;-82
2022/11/10 11:16:48;;;;;;;4.80;2.27;;;17.20;97.20;;;;;;940505;152;27311;-82
2022/11/10 11:19:14;;;;;;;11.05;3.72;;;17.20;96.80;;;;;;940530;151;27377;-82
2022/11/10 11:22:18;;;;;;;5.97;2.65;;;17.20;96.30;;;;;;940140;150;27345;-82
2022/11/10 11:25:09;;;;;;;3.95;2.02;;;17.10;96.00;;;;;;940547;152;27351;-81
2022/11/10 11:27:35;;;;;;;5.45;2.20;;;17.00;96.00;;;;;;939945;150;27348;-82
2022/11/10 11:30:11;;;;;;;6.58;2.35;;;17.00;96.00;;;;;;939499;149;27336;-82
2022/11/10 11:33:05;;;;;;;3.77;2.20;;;16.90;96.00;;;;;;939984;149;27382;-83
2022/11/10 11:35:40;;;;;;;6.83;2.70;;;16.90;96.10;;;;;;939643;151;27282;-81
2022/11/10 11:38:16;;;;;;;5.67;2.30;;;16.90;96.30;;;;;;940400;149;27274;-82
2022/11/10 11:40:45;;;;;;;3.80;2.47;;;16.80;96.30;;;;;;939855;149;27428;-83
2022/11/10 11:43:49;;;;;;;6.17;2.52;;;16.80;96.30;;;;;;940898;149;27411;-83
2022/11/10 11:46:39;;;;;;;4.33;2.00;;;16.80;96.10;;;;;;939547;152;27418;-83
2022/11/10 11:49:27;;;;;;;3.00;2.02;;;16.80;96.20;;;;;;940734;150;27341;-84
2022/11/10 11:52:24;;;;;;;6.28;2.45;;;16.80;96.20;;;;;;940649;151;27277;-82
2022/11/10 11:55:06;;;;;;;3.08;2.12;;;16.80;96.10;;;;;;939910;152;27381;-81
2022/11/10 11:57:54;;;;;;;3.02;2.22;;;16.70;95.90;;;;;;939317;151;27317;-83
2022/11/10 12:00:21;;;;;;;6.80;2.80;;;16.70;95.70;;;;;;940289;149;27469;-82
2022/11/10 12:03:04;;;;;;;4.20;2.50;;;16.60;95.60;;;;;;940208;151;27337;-83
2022/11/10 12:06:01;;;;;;;5.03;2.67;;;16.60;95.70;;;;;;940993;151;27337;-83
2022/11/10 12:08:43;;;;;;;4.85;2.00;;;16.60;95.50;;;;;;940069;150;27349;-81
2022/11/10 12:11:18;;;;;;;4.05;2.55;;;16.60;95.50;;;;;;940161;151;27262;-80
2022/11/10 12:13:59;;;;;;;5.85;2.77;;;16.60;95.30;;;;;;934345;147;27295;-80
2022/11/10 12:16:26;;;;;;;5.80;2.50;;;16.50;94.80;;;;;;930418;147;27333;-80
2022/11/10 12:19:01;;;;;;;4.58;2.90;;;16.50;94.70;;;;;;942562;145;27341;-79
2022/11/10 12:21:28;;;;;;;5.47;2.17;;;16.50;94.60;;;;;;940576;146;27332;-81
2022/11/10 12:24:09;;;;;;;4.30;2.45;;;16.50;94.80;;;;;;939628;150;27330;-82
2022/11/10 12:26:48;;;;;;;3.67;2.12;;;16.50;94.80;;;;;;938201;151;27818;-83
2022/11/10 12:29:27;;;;;;;6.45;2.60;;;16.50;94.60;;;;;;939644;150;27464;-83
2022/11/10 12:31:53;;;;;;;6.17;2.98;;;16.50;94.50;;;;;;940639;150;27309;-83
2022/11/10 12:34:39;;;;;;;4.78;2.33;;;16.50;94.30;;;;;;939251;151;27278;-83
2022/11/10 12:37:06;;;;;;;7.90;2.70;;;16.50;94.10;;;;;;939930;151;27289;-82
2022/11/10 12:39:49;;;;;;;4.10;2.22;;;16.50;94.00;;;;;;940145;150;28307;-80
2022/11/10 12:42:18;;;;;;;4.95;2.05;;;16.50;93.90;;;;;;939581;151;27340;-83
2022/11/10 12:45:00;;;;;;;3.58;2.05;;;16.50;93.70;;;;;;947300;150;27352;-83
2022/11/10 12:47:26;;;;;;;3.40;2.22;;;16.50;93.80;;;;;;947390;150;27235;-83
2022/11/10 12:50:05;;;;;;;4.15;2.02;;;16.50;93.50;;;;;;947389;150;27392;-82
2022/11/10 12:52:31;;;;;;;4.05;2.42;;;16.50;93.40;;;;;;945785;150;27415;-83
2022/11/10 12:54:58;;;;;;;3.67;2.30;;;16.50;93.00;;;;;;947077;150;27739;-81
2022/11/10 12:57:24;;;;;;;3.22;2.00;;;16.50;92.60;;;;;;948451;148;27306;-82
2022/11/10 13:00:00;;;;;;;3.30;2.20;;;16.50;93.10;;;;;;947777;148;27389;-82
2022/11/10 13:02:42;;;;;;;4.35;2.40;;;16.50;93.40;;;;;;947614;150;27330;-80
2022/11/10 13:05:14;;;;;;;6.85;2.40;;;16.60;93.40;;;;;;947972;151;27890;-81
2022/11/10 13:07:43;;;;;;;3.92;2.00;;;16.60;93.50;;;;;;947215;148;27403;-82
2022/11/10 13:10:18;;;;;;;3.83;2.27;;;16.50;93.30;;;;;;948228;150;27256;-82
2022/11/10 13:13:03;;;;;;;2.85;1.87;;;16.50;93.30;;;;;;946031;151;27338;-81